Myrtle Beach, SC

9:09 AM EDT on March 28, 2015 (GMT -0400)
Watsons Riverside On Luttie Road | | Change Station
CLOSE
Current Station
Personal Weather Station
Location: Socastee, SC
Elevation: 20 ft
Nearby Weather Stations
Active Advisory: Freeze Warning

Elev 20 ft 33.69 °N, 78.98 °W | Updated 2 seconds ago

Mostly Cloudy
Mostly Cloudy
47.8 °F
Feels Like 48 °F
N
1.6
Wind Variable Wind from West
Gusts 10.7 mph

Today
High -- | Low -- °F
--% Chance of Precip.
Yesterday
High -- | Low -- °F
Precip. -- in
7:09 AM 7:33 PM
Waxing Gibbous, 62% visible
Pressure 30.02 in
Visibility 10.0 miles
Clouds Mostly Cloudy 1800 ft
Mostly Cloudy 3400 ft
Windchill 48 °F
Dew Point 36 °F
Humidity 62%
Rainfall 0.00 in
Snow Depth Not available.
UV 1 out of 12
Pollen 9.40 out of 12
Air Quality Not available.
Flu Activity Not available.
METAR KMYR 281245Z 36015KT 10SM BKN018 BKN034 08/03 A3002

More Conditions Fewer Conditions

Pressure 30.02 in
Visibility 10.0 miles
Clouds Mostly Cloudy 1800 ft
Mostly Cloudy 3400 ft
Windchill 48 °F
Dew Point 36 °F
Humidity 62%
Rainfall 0.00 in
Snow Depth Not available.
UV 1 out of 12
Pollen 9.40 out of 12
Air Quality Not available.
Flu Activity Not available.
METAR KMYR 281245Z 36015KT 10SM BKN018 BKN034 08/03 A3002

More Conditions Fewer Conditions

10-Day Weather Forecast

Almanac

Astronomy

Mar. 28, 2015 Rise Set
Actual Time
Civil Twilight
Nautical Twilight
Astronomical Twilight
Moon
Length of Visible Light
Length of Day
Tomorrow will be .
, % of the Moon is Illuminated

Today's Extremes

State Highs State Lows

Community

WunderPhotos

Upload Photos

1,808,969 photos uploaded!

WunderBlogs® & News

Nearby

Air Quality

  Air Quality AQ Index Pollutant
Not available.

Snow Depth

Station Depth Elevation

Earthquake Activity

City Distance Mag. Time & Date
Minimum magnitude displayed is 2.5.

Coastal Water Temperatures

Place Temperature

Stations

Nearby Weather Stations

Station Location Temp. Windchill Dew Point Humidity Wind Precip. Elev Updated Type
                   
Freeze Warning
Statement as of 3:25 AM EDT on March 28, 2015

... Freeze warning in effect from 2 am to 10 am EDT Sunday...

The National Weather Service in Wilmington has issued a freeze
warning... which is in effect from 2 am to 10 am EDT Sunday. The
freeze watch is no longer in effect.

* Lowest temperatures... 26 to 32 around sunrise.

* Timing... late tonight into Sunday morning.

* Impacts... cold sensitive vegetation such as blueberries and
strawberries... peaches and apricots... early field crops... tree
buds... and patio plants and ornamentals could be damaged or
killed. Those with agricultural and gardening interests should
prepare for freezing temperatures and take necessary precautions.

Precautionary/preparedness actions...

A freeze warning means sub-freezing temperatures are imminent or
highly likely. These conditions will kill crops and other
sensitive vegetation.



Tra